Etusivu
METAR-TAF:

METAR-TAF

Lentoasemat :

Gloucester, Englanti

Leveyspiiri: 51-54N, Pituuspiiri: 002-10W, korkeus merenpinnasta: 29 m

Tämänhetkinen sää

Tämä raportti tehtiin 6 tuntia ja 45 minuuttia sitten, kello 19.20 UTC
Tuuli 6 kn etelästä
Lämpötila 9°C
Kosteus 76%
Ilmanpaine 1016 hPa
Näkyvyys 10 km tai enemmän
Hajanaisia pilviä 3000 ft:n korkeudessa

METAR: EGBJ 191920Z 19006KT 9999 SCT030 09/05 Q1016

Aika: 02:05 (02:05 UTC)

Sääennuste

Tämä raportti tehtiin 9 tuntia ja 6 minuuttia sitten, kello 16.59 UTC
Ennuste voimassa 19. päivästä klo 18 UTC - 19. päivään klo 20 UTC
Tuuli 12 kn lounaasta
Näkyvyys 10 km tai enemmän
Hajanaisia pilviä 2500 ft:n korkeudessa
Todennäköisyys 30% :
Ajoittain
19. päivästä klo 19 UTC - 19. päivään klo 20 UTC
Näkyvyys: 8000 m
heikkoa sadetta

TAF: EGBJ 191659Z 1918/1920 23012KT 9999 SCT025 PROB30 TEMPO 1919/1920 8000 -RA

Säähavainnot ja -ennusteet yli 4000 lentoasemalta (METAR- ja TAF-raportit).

Käytössä olevat sääasemat on merkitty karttaan keltaisilla ja punaisilla pisteillä.

Aseta hiiri pisteen päälle nähdäksesi sääaseman nimen.

Klikkaa sitten nähdäksesi säähavainnot ja -ennusteet.

Kartan vaihtaminen: klikkaa mustalla rastilla varustettuja vihreitä pisteitä, niin voit zoomata sisään; viivalla varustettua vihreää pistettä, niin voit zoomata ulos tai vihreitä nuolia, niin pääset viereisille kartoille.


METAR-TAF: